Pagina principale
METAR-TAF:

METAR-TAF

Aeroporti :

Aeroporto Internazionale Jinnah

Karachi, Pakistan

latitudine: 24-54N, longitudine: 067-08E, altezza: 21 m

Osservazione

Il bollettino è stato emesso 56 minuti fa, alle 17:55 UTC
Vento calmo
Temperature 22°C
Umidità 57%
Pressione 1015 hPa
Visibilità: 5000 m
foschia

METAR: OPKC 241755Z 00000KT 5000 HZ NSC 22/13 Q1015 NOSIG

Ora: 23:51 (18:51 UTC)

Previsione

Il bollettino è stato emesso 2 ore e 51 minuti fa, alle 16:00 UTC
Previsione valida dal 24 alle 18 UTC al 25 alle 24 UTC
Vento 10 kt da nord/nord-ovest
Visibilità: 6000 m
Temporaneamente
dal 25 alle 01 UTC al 25 alle 05 UTC
Vento 3 kt da direzioni variabili
Visibilità: 2000 m
foschia
A partire da 25 alle 0500 UTC
Vento 8 kt da ovest con raffiche fino a 18 kt
Visibilità: 6000 m

TAF: OPKC 241600Z 2418/2524 34010KT 6000 NSC TEMPO 2501/2505 VRB03KT 2000 BR NSC FM250500 27008G18KT 6000 NSC

Osservazioni e previsioni meteorologiche di più di 4000 aeroporti (messaggi METAR e TAF).

Le stazioni disponibili sono rappresentate dai dischi gialli e rossi sulla carta.

Puntare il mouse per vedere il nome della stazione.

Clicca sopra per visualizzare le osservazioni e previsioni meteorologiche.

Per cambiare la mappa : fare clic sui pulsanti verdi con una croce nera per ingrandire, il pulsante verde con un trattino per diminuire, o sulla freccia verde per le mappe adiacenti.


METAR-TAF: